Portada
METAR-TAF:

METAR-TAF

Aeropuertos :

Caracas, Venezuela

Aeropuerto Internacional de Maiquetía Simón Bolívar

latitud: 10-36N, longitud: 066-59W, altitud: 43 m

Observación

El informe se hizo hace 9 minutos, a las 14:00 UTC
Viento 5 kt del norte
Temperatura 29°C
Humedad 58%
Presión 1012 hPa
Visibilidad 10 km o más
Nubes dispersas a una altura de 1600 ft

METAR: SVMI 221400Z 36005KT 9999 SCT016 29/20 Q1012

Hora: 10:09 (14:09 UTC)

Pronóstico

El informe se hizo hace 4 horas y 9 minutos, a las 10:00 UTC
Pronóstico válido del 22 a las 12 UTC al 23 a las 12 UTC
Viento 10 kt del este
Visibilidad 10 km o más
Nubes dispersas a una altura de 1600 ft
Nubes dispersas a una altura de 10000 ft
Evolucionando progresivamente
del 22 a las 12 UTC al 22 a las 16 UTC
Viento 5 kt del noreste
Escasas nubes a una altura de 1600 ft
Nubes dispersas a una altura de 10000 ft

TAF: SVMI 221000Z 2212/2312 09010KT 9999 SCT016 SCT100 TX33/18Z TN24/08Z BECMG 2212/2216 05005KT FEW016 SCT100

Observaciones y pronósticos meteorológicos de más de 4000 aeropuertos (mensajes METAR y TAF).

Los puntos amarillos y rojos representan las estaciones disponibles.

Ponga el ratón en el punto deseado para ver el nombre de la estación.

Haga clic para ver las observaciones y los pronósticos meteorológicos.

Para cambiar el mapa : haga clic en los botones verdes con una cruz de color negro para hacer un zoom, en el botón verde con un guión para alejar o en las flechas verdes para mapas adyacentes.


METAR-TAF: